Time;durP1;ratioP1;P1;durP2;ratioP2;P2;SDS_P1;SDS_P2;PMS_P1;PMS_P2;Temp;Humidity;BMP_temperature;BMP_pressure;BME280_temperature;BME280_humidity;BME280_pressure;Samples;Min_cycle;Max_cycle;Signal;HPM_P1;HPM_P2
2023/09/12 00:02:17;;;;;;;0.10;0.10;;;;;;;10.30;90.85;100105.97;5048497;28;20140;-70
2023/09/12 00:04:43;;;;;;;0.10;0.10;;;;;;;10.28;90.61;100105.38;5047326;28;20045;-70
2023/09/12 00:07:10;;;;;;;0.10;0.10;;;;;;;10.26;90.71;100110.28;5048452;28;20092;-72
2023/09/12 00:09:36;;;;;;;0.00;0.00;;;;;;;10.20;90.83;100108.63;5040762;28;20107;-69
2023/09/12 00:12:04;;;;;;;0.10;0.10;;;;;;;10.11;91.03;100089.19;5027557;28;20040;-70
2023/09/12 00:14:30;;;;;;;0.10;0.10;;;;;;;10.23;91.32;100107.28;5060248;28;20110;-73
2023/09/12 00:16:56;;;;;;;0.10;0.10;;;;;;;10.25;91.23;100105.91;5064149;28;20064;-70
2023/09/12 00:19:22;;;;;;;0.10;0.10;;;;;;;10.21;90.83;100110.28;5061999;28;20569;-70
2023/09/12 00:21:48;;;;;;;0.10;0.10;;;;;;;10.18;90.86;100105.34;5047827;28;20045;-69
2023/09/12 00:24:15;;;;;;;0.10;0.10;;;;;;;10.16;91.15;100116.53;5045283;28;20049;-70
2023/09/12 00:26:41;;;;;;;0.00;0.00;;;;;;;10.11;91.54;100112.94;5043497;28;20060;-70
2023/09/12 00:29:09;;;;;;;0.10;0.10;;;;;;;10.05;91.68;100120.28;5047314;28;20090;-70
2023/09/12 00:31:35;;;;;;;;;;;;;;;9.99;91.74;100124.91;5044693;28;20044;-70
2023/09/12 00:34:01;;;;;;;0.00;0.00;;;;;;;9.95;91.56;100118.31;5059437;28;19931;-69
2023/09/12 00:36:27;;;;;;;0.10;0.10;;;;;;;9.92;91.52;100135.22;5063001;28;20049;-69
2023/09/12 00:38:53;;;;;;;0.10;0.10;;;;;;;9.90;91.45;100132.75;5061461;28;20467;-69
2023/09/12 00:41:19;;;;;;;0.00;0.00;;;;;;;9.86;91.46;100133.56;5047089;28;20508;-69
2023/09/12 00:43:45;;;;;;;0.10;0.10;;;;;;;9.81;92.09;100134.34;5043187;28;20049;-68
2023/09/12 00:46:18;;;;;;;0.00;0.00;;;;;;;9.77;92.23;100141.41;5023794;28;20100;-69
2023/09/12 00:48:45;;;;;;;0.10;0.10;;;;;;;9.75;92.19;100146.28;5040320;28;20051;-68
2023/09/12 00:51:13;;;;;;;0.10;0.10;;;;;;;9.71;92.47;100142.44;5056624;28;20559;-69
2023/09/12 00:53:39;;;;;;;0.10;0.10;;;;;;;9.73;92.85;100138.38;5059025;28;20067;-69
2023/09/12 00:56:06;;;;;;;0.10;0.10;;;;;;;9.72;93.22;100155.00;5059322;28;20060;-68
2023/09/12 00:58:33;;;;;;;0.15;0.10;;;;;;;9.70;93.03;100147.09;5062541;28;20053;-69
2023/09/12 01:00:59;;;;;;;0.10;0.10;;;;;;;9.56;92.95;100129.50;5052955;28;20044;-69
2023/09/12 01:03:27;;;;;;;0.00;0.00;;;;;;;9.36;93.05;100106.38;5054177;28;20402;-70
2023/09/12 01:05:54;;;;;;;0.10;0.10;;;;;;;9.65;93.35;100141.56;5060441;28;20052;-69
2023/09/12 01:08:20;;;;;;;0.10;0.10;;;;;;;9.67;93.41;100146.78;5063784;28;20095;-69
2023/09/12 01:10:49;;;;;;;0.10;0.10;;;;;;;9.66;93.35;100151.41;5057208;28;20055;-69
2023/09/12 01:13:17;;;;;;;0.10;0.10;;;;;;;9.67;93.32;100152.22;5063312;28;20044;-68
2023/09/12 01:15:43;;;;;;;0.10;0.10;;;;;;;9.63;93.34;100152.75;5056393;28;20053;-70
2023/09/12 01:18:09;;;;;;;0.10;0.10;;;;;;;9.61;93.44;100154.09;5062476;28;20045;-70
2023/09/12 01:20:42;;;;;;;0.10;0.10;;;;;;;9.59;93.70;100154.34;5044079;28;20396;-69
2023/09/12 01:23:37;;;;;;;0.10;0.10;;;;;;;9.58;93.94;100157.34;5044123;28;20052;-70
2023/09/12 01:26:29;;;;;;;0.00;0.00;;;;;;;9.58;93.86;100146.44;5045896;28;20045;-70
2023/09/12 01:28:58;;;;;;;0.05;0.05;;;;;;;9.56;93.84;100149.41;5043919;28;20060;-69
2023/09/12 01:31:25;;;;;;;0.00;0.00;;;;;;;9.57;94.04;100148.31;5060773;28;20135;-70
2023/09/12 01:33:55;;;;;;;0.10;0.10;;;;;;;9.49;94.39;100154.28;5062914;28;20125;-70
2023/09/12 01:36:21;;;;;;;0.00;0.00;;;;;;;9.44;94.63;100144.13;5064718;28;20065;-70
2023/09/12 01:38:47;;;;;;;0.10;0.10;;;;;;;9.50;94.76;100153.19;5065702;28;20535;-70
2023/09/12 01:41:14;;;;;;;0.10;0.10;;;;;;;9.48;94.69;100147.16;5051762;28;20094;-70
2023/09/12 01:43:43;;;;;;;0.00;0.00;;;;;;;9.49;94.85;100149.63;5045287;28;20563;-70
2023/09/12 01:46:10;;;;;;;0.03;0.03;;;;;;;9.46;94.80;100144.69;5062014;28;20538;-69
2023/09/12 01:48:38;;;;;;;0.10;0.10;;;;;;;9.50;94.77;100159.44;5059212;28;20048;-70
2023/09/12 01:51:06;;;;;;;0.00;0.00;;;;;;;9.47;94.80;100157.25;5063127;28;20076;-70
2023/09/12 01:53:36;;;;;;;0.10;0.10;;;;;;;9.48;95.16;100158.09;5064796;28;20041;-70
2023/09/12 01:56:03;;;;;;;0.10;0.10;;;;;;;9.46;95.05;100166.53;5052953;28;20078;-70
2023/09/12 01:58:30;;;;;;;0.00;0.00;;;;;;;9.44;94.87;100156.94;5043972;28;20063;-69
2023/09/12 02:00:57;;;;;;;0.10;0.10;;;;;;;9.42;94.93;100159.09;5046156;28;20049;-70
2023/09/12 02:03:24;;;;;;;0.10;0.10;;;;;;;9.39;94.94;100165.06;5045355;28;20613;-70
2023/09/12 02:05:50;;;;;;;0.00;0.00;;;;;;;9.40;95.03;100167.56;5039946;28;20086;-69
2023/09/12 02:08:17;;;;;;;0.10;0.10;;;;;;;9.40;94.82;100166.72;5065143;28;20040;-70
2023/09/12 02:10:43;;;;;;;0.10;0.10;;;;;;;9.36;94.88;100164.53;5062831;28;20131;-70
2023/09/12 02:13:10;;;;;;;0.00;0.00;;;;;;;9.33;94.88;100169.66;5050336;28;20048;-70
2023/09/12 02:15:36;;;;;;;0.10;0.10;;;;;;;9.35;95.01;100167.50;5063424;28;20045;-69
2023/09/12 02:18:03;;;;;;;0.00;0.00;;;;;;;9.35;95.24;100165.59;5044281;28;20060;-70
2023/09/12 02:20:32;;;;;;;0.10;0.10;;;;;;;9.35;95.51;100165.59;5042904;28;20055;-68
2023/09/12 02:22:58;;;;;;;0.00;0.00;;;;;;;9.33;95.12;100175.13;5060913;28;20099;-69
2023/09/12 02:25:24;;;;;;;0.10;0.10;;;;;;;9.34;94.92;100174.03;5059263;28;20129;-69
2023/09/12 02:27:50;;;;;;;0.00;0.00;;;;;;;9.30;94.89;100178.38;5050660;28;20117;-68
2023/09/12 02:30:17;;;;;;;0.10;0.10;;;;;;;9.26;95.00;100177.25;5050184;28;20491;-68
2023/09/12 02:32:43;;;;;;;0.10;0.10;;;;;;;9.24;95.34;100173.94;5043133;28;20041;-68
2023/09/12 02:35:09;;;;;;;0.10;0.10;;;;;;;9.25;95.11;100187.31;5027772;28;20048;-69
2023/09/12 02:37:37;;;;;;;0.00;0.00;;;;;;;9.25;95.18;100186.50;5025607;28;20045;-68
2023/09/12 02:40:05;;;;;;;;;;;;;;;9.22;95.26;100188.66;5034334;28;20048;-69
2023/09/12 02:42:31;;;;;;;0.10;0.10;;;;;;;9.18;95.32;100178.53;5040839;28;20020;-69
2023/09/12 02:44:58;;;;;;;0.10;0.10;;;;;;;9.16;95.06;100189.69;5026925;28;20052;-69
2023/09/12 02:47:24;;;;;;;0.00;0.00;;;;;;;9.10;95.47;100177.06;5034190;28;20474;-69
2023/09/12 02:49:50;;;;;;;0.10;0.10;;;;;;;9.15;95.18;100188.03;5044707;28;20049;-69
2023/09/12 02:52:16;;;;;;;0.10;0.10;;;;;;;9.10;95.44;100171.63;5064226;28;20831;-68
2023/09/12 02:54:45;;;;;;;0.10;0.10;;;;;;;9.11;95.36;100178.72;5063923;28;20048;-68
2023/09/12 02:57:12;;;;;;;0.10;0.10;;;;;;;9.10;95.58;100182.53;5058006;28;20051;-68
2023/09/12 02:59:38;;;;;;;0.00;0.00;;;;;;;9.04;95.76;100184.38;5048537;28;20055;-69
2023/09/12 03:02:04;;;;;;;0.00;0.00;;;;;;;9.06;95.71;100187.66;5047737;28;20075;-69
2023/09/12 03:04:30;;;;;;;0.10;0.10;;;;;;;9.05;95.65;100191.47;5062586;28;20074;-68
2023/09/12 03:06:57;;;;;;;0.00;0.00;;;;;;;9.05;95.59;100193.34;5047018;28;20071;-68
2023/09/12 03:09:24;;;;;;;0.10;0.10;;;;;;;9.08;95.37;100193.69;5045736;28;20044;-70
2023/09/12 03:11:53;;;;;;;0.03;0.03;;;;;;;9.11;95.23;100199.69;5063605;28;20048;-71
2023/09/12 03:14:19;;;;;;;0.10;0.10;;;;;;;9.13;95.39;100201.09;5046208;28;20360;-71
2023/09/12 03:16:46;;;;;;;0.10;0.10;;;;;;;9.16;95.22;100197.88;5064584;28;20450;-70
2023/09/12 03:19:12;;;;;;;0.00;0.00;;;;;;;9.17;95.04;100193.25;5048852;28;20532;-70
2023/09/12 03:21:39;;;;;;;0.00;0.00;;;;;;;9.18;95.05;100192.97;5046567;28;20032;-70
2023/09/12 03:24:06;;;;;;;0.00;0.00;;;;;;;9.19;95.01;100188.34;5047168;28;20239;-70
2023/09/12 03:26:34;;;;;;;0.00;0.00;;;;;;;9.15;94.61;100184.50;5058127;28;20475;-70
2023/09/12 03:29:02;;;;;;;0.00;0.00;;;;;;;9.23;94.42;100192.22;5042009;28;20794;-68
2023/09/12 03:31:28;;;;;;;0.10;0.10;;;;;;;9.21;94.14;100189.75;5042889;28;20127;-70
2023/09/12 03:33:55;;;;;;;0.10;0.10;;;;;;;9.31;94.19;100197.22;5044559;28;20056;-69
2023/09/12 03:36:21;;;;;;;0.10;0.10;;;;;;;9.33;93.90;100195.06;5044466;28;20052;-71
2023/09/12 03:38:48;;;;;;;0.10;0.10;;;;;;;9.37;93.57;100203.56;5062990;28;20494;-68
2023/09/12 03:41:14;;;;;;;0.10;0.10;;;;;;;9.39;93.25;100203.28;5063676;28;20044;-69
2023/09/12 03:43:40;;;;;;;0.00;0.00;;;;;;;9.32;93.25;100189.84;5054175;28;20049;-69
2023/09/12 03:46:08;;;;;;;0.10;0.10;;;;;;;9.47;93.12;100200.09;5045667;28;20065;-69
2023/09/12 03:48:36;;;;;;;0.10;0.10;;;;;;;9.53;93.10;100207.25;5045588;28;20068;-68
2023/09/12 03:51:03;;;;;;;0.10;0.10;;;;;;;9.56;93.04;100214.94;5044683;28;20040;-68
2023/09/12 03:53:30;;;;;;;;;;;;;;;9.51;92.74;100207.50;5061709;28;20318;-69
2023/09/12 03:55:57;;;;;;;0.10;0.10;;;;;;;9.56;92.46;100209.47;5044964;28;19925;-69
2023/09/12 03:58:24;;;;;;;0.10;0.10;;;;;;;9.55;92.04;100202.34;5043565;28;20041;-69
2023/09/12 04:00:50;;;;;;;0.10;0.10;;;;;;;9.59;91.89;100206.22;5027369;28;20049;-69
2023/09/12 04:03:18;;;;;;;0.10;0.10;;;;;;;9.68;91.14;100209.31;5047837;28;20056;-69
2023/09/12 04:05:46;;;;;;;0.10;0.10;;;;;;;9.72;91.11;100213.19;5043699;28;20095;-69
2023/09/12 04:08:13;;;;;;;0.10;0.10;;;;;;;9.77;90.83;100209.69;5045137;28;20427;-70
2023/09/12 04:10:39;;;;;;;0.10;0.10;;;;;;;9.82;90.51;100214.34;5056987;28;20105;-71
2023/09/12 04:13:05;;;;;;;0.10;0.10;;;;;;;9.88;90.04;100222.31;5072361;28;20139;-70
2023/09/12 04:15:31;;;;;;;0.10;0.10;;;;;;;9.92;89.63;100223.47;5073292;28;20151;-71
2023/09/12 04:17:57;;;;;;;0.10;0.10;;;;;;;9.95;89.22;100234.94;5074923;28;20043;-70
2023/09/12 04:20:25;;;;;;;0.10;0.10;;;;;;;9.96;89.06;100231.13;5067711;28;20041;-70
2023/09/12 04:22:51;;;;;;;;;;;;;;;9.98;88.86;100235.22;5066420;28;20052;-70
2023/09/12 04:25:19;;;;;;;0.10;0.10;;;;;;;10.00;88.40;100227.63;5072346;28;20435;-71
2023/09/12 04:27:46;;;;;;;0.10;0.10;;;;;;;10.02;88.14;100224.63;5071623;28;20051;-70
2023/09/12 04:30:13;;;;;;;0.10;0.10;;;;;;;10.01;88.35;100226.53;5068868;28;20078;-70
2023/09/12 04:32:39;;;;;;;0.10;0.10;;;;;;;10.04;88.04;100220.56;5067393;28;20511;-70
2023/09/12 04:35:07;;;;;;;0.10;0.10;;;;;;;10.13;87.57;100225.50;5048560;28;20063;-70
2023/09/12 04:37:37;;;;;;;0.10;0.10;;;;;;;10.13;87.32;100222.78;5063369;28;20151;-69
2023/09/12 04:40:05;;;;;;;0.10;0.10;;;;;;;10.22;87.23;100223.97;5052223;28;20049;-70
2023/09/12 04:42:32;;;;;;;0.10;0.10;;;;;;;10.30;86.66;100228.13;5068404;28;20052;-70
2023/09/12 04:44:58;;;;;;;0.10;0.10;;;;;;;10.41;86.54;100232.59;5064040;28;20051;-70
2023/09/12 04:47:24;;;;;;;0.10;0.10;;;;;;;10.47;86.04;100239.75;5050964;28;20048;-69
2023/09/12 04:49:52;;;;;;;0.10;0.10;;;;;;;10.50;86.55;100233.75;4714017;28;10000724;-69
2023/09/12 04:52:18;;;;;;;0.10;0.10;;;;;;;10.62;85.92;100228.09;5023274;28;20331;-69
2023/09/12 04:54:46;;;;;;;0.10;0.10;;;;;;;10.66;85.37;100222.09;5052943;28;20067;-69
2023/09/12 04:57:13;;;;;;;0.10;0.10;;;;;;;10.82;84.78;100225.72;5028388;28;20067;-70
2023/09/12 04:59:39;;;;;;;0.10;0.10;;;;;;;10.83;84.95;100224.63;5032962;28;20065;-69
2023/09/12 05:02:06;;;;;;;0.10;0.10;;;;;;;10.96;84.63;100239.75;5053009;28;20156;-69
2023/09/12 05:04:32;;;;;;;0.10;0.10;;;;;;;11.06;84.00;100237.88;5043675;28;20047;-70
2023/09/12 05:06:58;;;;;;;0.20;0.20;;;;;;;11.16;83.54;100245.28;5034630;28;20143;-70
2023/09/12 05:09:24;;;;;;;0.20;0.20;;;;;;;11.25;82.84;100244.78;5052236;28;20048;-70
2023/09/12 05:11:52;;;;;;;0.10;0.10;;;;;;;11.30;82.85;100244.81;5037106;28;20139;-71
2023/09/12 05:14:21;;;;;;;0.10;0.10;;;;;;;11.32;82.72;100242.59;5065672;28;20446;-70
2023/09/12 05:17:01;;;;;;;0.20;0.20;;;;;;;11.39;82.34;100234.94;5033570;28;20099;-69
2023/09/12 05:19:30;;;;;;;0.13;0.13;;;;;;;11.45;82.23;100230.31;5027620;28;20053;-69
2023/09/12 05:21:57;;;;;;;0.10;0.10;;;;;;;11.55;82.10;100243.22;5051044;28;20123;-67
2023/09/12 05:24:23;;;;;;;0.10;0.10;;;;;;;11.65;81.93;100254.19;5060559;28;20110;-70
2023/09/12 05:26:50;;;;;;;0.20;0.20;;;;;;;11.70;81.72;100245.16;5067456;28;20163;-69
2023/09/12 05:29:17;;;;;;;0.10;0.10;;;;;;;11.76;81.66;100241.31;5062732;28;20049;-70
2023/09/12 05:31:43;;;;;;;;;;;;;;;11.87;81.47;100248.47;5051095;28;20045;-70
2023/09/12 05:34:09;;;;;;;0.10;0.10;;;;;;;11.91;80.77;100249.56;5031388;28;20003;-70
2023/09/12 05:36:37;;;;;;;0.10;0.10;;;;;;;12.02;80.21;100249.63;5023547;28;20045;-69
2023/09/12 05:39:04;;;;;;;0.17;0.17;;;;;;;12.06;79.80;100245.22;5046784;28;20073;-69
2023/09/12 05:41:31;;;;;;;0.20;0.20;;;;;;;12.31;79.48;100255.34;5028413;28;20045;-70
2023/09/12 05:43:57;;;;;;;0.20;0.20;;;;;;;12.58;78.55;100253.41;5038801;28;20064;-70
2023/09/12 05:46:25;;;;;;;0.20;0.20;;;;;;;12.80;76.86;100264.06;5033254;28;20300;-70
2023/09/12 05:48:52;;;;;;;0.20;0.20;;;;;;;12.83;76.29;100257.19;5041702;28;20138;-70
2023/09/12 05:51:19;;;;;;;0.20;0.20;;;;;;;13.00;76.50;100259.63;5047686;28;20060;-70
2023/09/12 05:53:45;;;;;;;0.20;0.20;;;;;;;13.16;75.62;100261.19;5053968;28;20040;-71
2023/09/12 05:56:11;;;;;;;0.20;0.20;;;;;;;13.14;75.17;100241.44;5045987;28;20044;-71
2023/09/12 05:58:42;;;;;;;0.35;0.20;;;;;;;13.43;74.71;100265.50;5047723;28;20045;-70
2023/09/12 06:01:08;;;;;;;0.20;0.20;;;;;;;13.61;73.74;100264.00;5074898;28;20059;-70
2023/09/12 06:03:36;;;;;;;0.20;0.20;;;;;;;13.81;72.85;100278.72;5063941;28;20738;-69
2023/09/12 06:06:03;;;;;;;0.35;0.30;;;;;;;13.97;72.03;100284.94;5063636;28;20139;-69
2023/09/12 06:08:29;;;;;;;0.20;0.20;;;;;;;14.06;70.77;100282.41;5052427;28;20318;-70
2023/09/12 06:10:56;;;;;;;0.20;0.20;;;;;;;14.07;70.00;100286.00;5040772;28;20048;-70
2023/09/12 06:13:24;;;;;;;0.30;0.30;;;;;;;14.16;69.71;100279.59;5048572;28;20144;-70
2023/09/12 06:15:51;;;;;;;0.20;0.20;;;;;;;14.34;69.43;100280.00;5051175;28;20048;-70
2023/09/12 06:18:18;;;;;;;0.20;0.20;;;;;;;14.59;69.01;100281.69;5050466;28;20090;-70
2023/09/12 06:20:46;;;;;;;0.20;0.20;;;;;;;14.78;67.89;100275.47;5058514;28;20159;-70
2023/09/12 06:23:12;;;;;;;0.20;0.20;;;;;;;14.83;66.51;100278.19;5059499;28;20354;-71
2023/09/12 06:25:38;;;;;;;0.30;0.30;;;;;;;14.93;66.32;100276.41;5059661;28;20339;-71
2023/09/12 06:28:08;;;;;;;0.20;0.20;;;;;;;15.03;65.98;100288.13;5047097;28;20068;-72
2023/09/12 06:30:34;;;;;;;0.20;0.20;;;;;;;15.09;65.17;100285.34;5054004;28;20049;-70
2023/09/12 06:33:00;;;;;;;0.20;0.20;;;;;;;15.03;65.03;100282.63;5067864;28;20165;-70
2023/09/12 06:35:27;;;;;;;0.30;0.30;;;;;;;15.12;64.67;100280.03;5058602;28;20140;-70
2023/09/12 06:40:53;;;;;;;0.30;0.30;;;;;;;15.39;63.37;100283.31;5040420;22;20058;-69
2023/09/12 06:43:19;;;;;;;0.20;0.20;;;;;;;15.52;62.50;100276.25;4972149;28;20042;-70
2023/09/12 06:45:46;;;;;;;0.20;0.20;;;;;;;15.56;62.01;100275.38;4977938;28;20046;-70
2023/09/12 06:48:12;;;;;;;0.22;0.22;;;;;;;15.65;61.89;100275.50;4973335;28;20116;-70
2023/09/12 06:50:38;;;;;;;0.30;0.30;;;;;;;15.76;61.46;100273.44;4973876;28;20571;-71
2023/09/12 06:53:06;;;;;;;0.20;0.20;;;;;;;15.87;60.63;100276.84;4976312;28;20257;-71
2023/09/12 06:55:33;;;;;;;0.20;0.20;;;;;;;15.96;60.48;100269.56;4958145;28;20042;-69
2023/09/12 06:58:01;;;;;;;0.30;0.30;;;;;;;16.05;59.78;100264.19;4976544;28;20361;-70
2023/09/12 07:00:28;;;;;;;0.20;0.20;;;;;;;16.39;58.97;100278.78;4974712;28;20049;-70
2023/09/12 07:02:55;;;;;;;0.30;0.30;;;;;;;16.64;58.00;100276.72;4978155;28;20057;-68
2023/09/12 07:05:22;;;;;;;0.30;0.30;;;;;;;16.88;57.30;100282.06;4975721;28;20207;-69
2023/09/12 07:07:48;;;;;;;0.30;0.30;;;;;;;17.12;56.73;100284.66;4973519;28;20188;-70
2023/09/12 07:10:14;;;;;;;0.20;0.20;;;;;;;17.12;56.65;100279.13;4974027;28;20053;-69
2023/09/12 07:12:41;;;;;;;0.30;0.30;;;;;;;17.44;56.55;100282.09;4975645;28;20050;-69
2023/09/12 07:15:09;;;;;;;0.30;0.30;;;;;;;18.00;55.16;100281.91;4978945;28;20356;-70
2023/09/12 07:17:40;;;;;;;0.30;0.30;;;;;;;18.42;53.23;100284.53;4972677;28;20149;-71
2023/09/12 07:20:11;;;;;;;0.30;0.30;;;;;;;18.61;53.11;100289.84;4971293;28;20053;-70
2023/09/12 07:22:39;;;;;;;0.30;0.30;;;;;;;18.87;51.98;100285.56;4953001;28;20050;-70
2023/09/12 07:25:06;;;;;;;0.30;0.30;;;;;;;18.84;51.95;100282.28;4980762;28;20058;-68
2023/09/12 07:27:33;;;;;;;0.30;0.30;;;;;;;18.99;51.23;100281.09;4986231;28;20433;-70
2023/09/12 07:29:59;;;;;;;0.30;0.30;;;;;;;19.01;51.31;100283.53;4987503;28;20125;-69
2023/09/12 07:32:27;;;;;;;0.30;0.30;;;;;;;19.18;50.69;100281.94;4971413;28;20136;-70
2023/09/12 07:34:53;;;;;;;0.30;0.30;;;;;;;19.51;50.03;100276.81;4988335;28;20048;-71
2023/09/12 07:37:21;;;;;;;0.30;0.30;;;;;;;19.77;48.85;100283.53;4986486;28;20069;-70
2023/09/12 07:39:47;;;;;;;;;;;;;;;20.17;48.75;100277.03;4986816;28;20102;-70
2023/09/12 07:42:13;;;;;;;0.30;0.30;;;;;;;20.36;47.83;100279.44;4986922;28;20131;-70
2023/09/12 07:44:39;;;;;;;0.30;0.30;;;;;;;20.36;47.21;100280.25;4984264;28;20046;-70
2023/09/12 07:47:05;;;;;;;0.40;0.40;;;;;;;20.52;47.62;100280.56;4985247;28;20238;-68
2023/09/12 07:49:33;;;;;;;0.30;0.30;;;;;;;20.80;46.65;100274.63;4984539;28;20383;-69
2023/09/12 07:51:59;;;;;;;0.30;0.30;;;;;;;21.06;45.87;100275.66;4986576;28;20133;-70
2023/09/12 07:54:27;;;;;;;0.30;0.30;;;;;;;21.28;45.30;100282.91;4988482;28;20109;-70
2023/09/12 07:56:54;;;;;;;0.30;0.30;;;;;;;21.43;44.36;100273.13;4985583;28;20049;-70
2023/09/12 07:59:20;;;;;;;0.40;0.40;;;;;;;21.45;44.57;100270.84;4984764;28;20054;-70
2023/09/12 08:01:48;;;;;;;0.40;0.40;;;;;;;21.48;44.19;100269.34;4987649;28;20548;-69
2023/09/12 08:04:14;;;;;;;0.30;0.30;;;;;;;21.85;43.42;100269.59;4953342;28;20077;-70
2023/09/12 08:06:42;;;;;;;0.40;0.40;;;;;;;21.78;42.93;100263.75;4986049;28;20042;-69
2023/09/12 08:09:09;;;;;;;0.30;0.30;;;;;;;21.89;42.38;100269.72;4982226;28;20039;-70
2023/09/12 08:11:36;;;;;;;0.30;0.30;;;;;;;22.02;41.93;100271.41;4976799;28;20042;-71
2023/09/12 08:14:02;;;;;;;0.30;0.30;;;;;;;21.99;42.07;100266.53;4981032;28;20054;-70
2023/09/12 08:16:31;;;;;;;0.30;0.30;;;;;;;21.98;42.51;100264.91;4987670;28;20057;-70
2023/09/12 08:18:58;;;;;;;0.30;0.30;;;;;;;22.42;41.62;100258.91;4969934;28;20044;-70
2023/09/12 08:21:24;;;;;;;0.40;0.40;;;;;;;22.90;40.18;100264.94;4989545;28;20054;-70
2023/09/12 08:23:52;;;;;;;0.30;0.30;;;;;;;23.19;39.37;100265.88;4985398;28;20969;-71
2023/09/12 08:26:18;;;;;;;0.40;0.40;;;;;;;23.40;38.75;100264.94;4966492;28;20354;-70
2023/09/12 08:28:44;;;;;;;0.30;0.30;;;;;;;23.41;38.42;100269.34;4987529;28;20050;-69
2023/09/12 08:31:10;;;;;;;0.35;0.35;;;;;;;23.40;38.34;100272.47;4989904;28;20057;-70
2023/09/12 08:33:37;;;;;;;0.40;0.40;;;;;;;23.24;38.99;100262.00;4972323;28;20078;-70
2023/09/12 08:36:03;;;;;;;0.30;0.30;;;;;;;23.54;38.57;100261.75;4987283;28;20046;-70
2023/09/12 08:38:30;;;;;;;0.40;0.40;;;;;;;23.72;38.03;100262.31;4988411;28;20590;-70
2023/09/12 08:40:57;;;;;;;0.30;0.30;;;;;;;23.75;38.37;100258.78;4986347;28;20153;-69
2023/09/12 08:43:23;;;;;;;0.40;0.40;;;;;;;24.21;37.40;100271.69;4986264;28;20081;-70
2023/09/12 08:45:51;;;;;;;0.40;0.40;;;;;;;24.43;36.70;100252.69;4989682;28;20053;-68
2023/09/12 08:48:21;;;;;;;0.40;0.40;;;;;;;24.86;35.70;100255.84;4970360;28;20065;-71
2023/09/12 08:50:49;;;;;;;0.40;0.40;;;;;;;25.01;35.06;100251.38;4989093;28;20148;-70
2023/09/12 08:53:17;;;;;;;0.40;0.40;;;;;;;24.77;35.53;100259.59;4991108;28;20069;-73
2023/09/12 08:55:43;;;;;;;0.30;0.30;;;;;;;24.48;36.00;100258.03;4990218;28;20042;-70
2023/09/12 08:58:11;;;;;;;0.40;0.40;;;;;;;24.48;36.14;100258.84;4991164;28;20622;-71
2023/09/12 09:00:38;;;;;;;0.40;0.40;;;;;;;24.10;36.37;100257.44;4989787;28;20153;-69
2023/09/12 09:03:05;;;;;;;0.40;0.40;;;;;;;23.80;37.22;100249.38;4990194;28;20053;-70
2023/09/12 09:05:35;;;;;;;0.50;0.50;;;;;;;23.90;36.80;100254.47;4992232;28;20101;-71
2023/09/12 09:08:03;;;;;;;0.40;0.40;;;;;;;23.98;36.66;100251.84;4971017;28;20050;-70
2023/09/12 09:10:32;;;;;;;0.40;0.40;;;;;;;23.83;36.80;100256.22;4986942;28;20042;-69
2023/09/12 09:12:58;;;;;;;0.50;0.50;;;;;;;23.66;36.67;100244.19;4990599;28;20443;-70
2023/09/12 09:15:27;;;;;;;0.60;0.60;;;;;;;23.93;36.34;100250.13;4991125;28;20097;-71
2023/09/12 09:17:55;;;;;;;0.50;0.50;;;;;;;24.29;35.45;100233.59;4991007;28;20100;-71
2023/09/12 09:20:25;;;;;;;0.50;0.50;;;;;;;24.01;35.99;100238.00;4988990;28;20074;-70
2023/09/12 09:23:00;;;;;;;0.50;0.50;;;;;;;23.99;35.77;100243.13;4990111;28;20070;-71
2023/09/12 09:25:26;;;;;;;0.50;0.50;;;;;;;23.59;35.83;100238.38;4973898;28;20058;-69
2023/09/12 09:27:54;;;;;;;0.55;0.55;;;;;;;23.43;35.91;100241.09;4989419;28;20046;-71
2023/09/12 09:30:40;;;;;;;0.50;0.50;;;;;;;23.11;36.43;100230.53;4988756;28;20050;-70
2023/09/12 09:33:08;;;;;;;0.50;0.50;;;;;;;23.34;36.52;100246.81;4991446;28;20512;-70
2023/09/12 09:35:35;;;;;;;0.50;0.50;;;;;;;23.74;36.05;100246.00;4992880;28;20468;-70
2023/09/12 09:38:03;;;;;;;0.60;0.60;;;;;;;23.80;35.69;100243.78;4992044;28;20070;-70
2023/09/12 09:40:29;;;;;;;0.60;0.60;;;;;;;23.51;36.19;100243.75;4990583;28;20101;-69
2023/09/12 09:43:00;;;;;;;0.50;0.50;;;;;;;23.64;35.89;100244.53;4989232;28;20455;-70
2023/09/12 09:45:26;;;;;;;0.55;0.55;;;;;;;24.28;34.67;100240.34;4990516;28;20078;-68
2023/09/12 09:47:57;;;;;;;0.60;0.60;;;;;;;24.43;34.26;100230.34;4988234;28;20038;-70
2023/09/12 09:50:24;;;;;;;0.50;0.50;;;;;;;24.67;33.83;100245.34;4989397;28;20062;-70
2023/09/12 09:52:54;;;;;;;0.50;0.50;;;;;;;24.95;33.26;100236.06;4973155;28;20141;-70
2023/09/12 09:55:21;;;;;;;0.50;0.50;;;;;;;25.15;33.09;100234.94;4969008;28;20054;-70
2023/09/12 09:57:48;;;;;;;0.60;0.60;;;;;;;25.33;32.40;100228.94;4990065;28;20145;-70
2023/09/12 10:00:14;;;;;;;;;;;;;;;25.73;32.17;100232.63;4990193;28;20137;-70
2023/09/12 10:02:43;;;;;;;0.60;0.60;;;;;;;26.35;31.41;100237.44;4971326;28;19925;-70
2023/09/12 10:05:17;;;;;;;0.60;0.60;;;;;;;27.13;30.36;100239.19;4986456;28;20058;-70
2023/09/12 10:07:47;;;;;;;0.60;0.60;;;;;;;27.65;29.20;100235.09;4988741;28;20050;-70
2023/09/12 10:10:16;;;;;;;0.60;0.60;;;;;;;28.24;28.60;100234.56;4991589;28;20054;-70
2023/09/12 10:12:53;;;;;;;0.50;0.50;;;;;;;28.54;27.81;100231.66;4989295;28;20053;-71
2023/09/12 10:15:22;;;;;;;0.50;0.50;;;;;;;29.02;27.20;100230.06;4990100;28;20081;-71
2023/09/12 10:17:56;;;;;;;0.50;0.50;;;;;;;29.65;26.31;100227.22;4989430;28;20473;-71
2023/09/12 10:20:27;;;;;;;0.50;0.50;;;;;;;30.14;25.62;100227.00;4973030;28;20046;-70
2023/09/12 10:23:03;;;;;;;0.50;0.50;;;;;;;29.40;26.32;100224.25;4991887;28;20034;-70
2023/09/12 10:25:30;;;;;;;0.50;0.50;;;;;;;29.96;26.08;100236.19;4991465;28;20498;-69
2023/09/12 10:27:58;;;;;;;0.60;0.60;;;;;;;30.27;25.33;100233.06;4987556;28;20054;-70
2023/09/12 10:30:26;;;;;;;0.50;0.50;;;;;;;30.13;25.73;100233.84;4989198;28;20078;-70
2023/09/12 10:32:52;;;;;;;0.60;0.60;;;;;;;30.76;24.67;100232.75;4991494;28;20050;-69
2023/09/12 10:35:19;;;;;;;0.60;0.60;;;;;;;31.40;23.97;100233.88;4990349;28;20580;-70
2023/09/12 10:37:51;;;;;;;0.60;0.60;;;;;;;31.96;23.67;100221.94;4990554;28;20089;-69
2023/09/12 10:40:18;;;;;;;0.68;0.68;;;;;;;31.98;23.09;100225.16;4987770;28;20058;-68
2023/09/12 10:42:47;;;;;;;0.70;0.70;;;;;;;31.77;23.19;100229.66;4987325;28;20050;-71
2023/09/12 10:45:13;;;;;;;0.70;0.70;;;;;;;31.82;23.20;100228.47;4987674;28;20602;-70
2023/09/12 10:47:40;;;;;;;0.77;0.77;;;;;;;31.53;23.10;100220.91;4986973;28;20145;-68
2023/09/12 10:50:08;;;;;;;0.60;0.60;;;;;;;31.47;23.64;100222.53;4983804;28;20058;-69
2023/09/12 10:52:39;;;;;;;0.90;0.90;;;;;;;31.45;23.17;100235.44;4988446;28;20058;-69
2023/09/12 10:55:08;;;;;;;0.80;0.80;;;;;;;31.43;23.11;100218.09;4988231;28;20105;-68
2023/09/12 10:57:34;;;;;;;0.80;0.80;;;;;;;31.59;22.93;100220.47;4988382;28;20101;-69
2023/09/12 11:00:12;;;;;;;0.70;0.70;;;;;;;31.70;23.14;100212.78;4987769;28;20134;-70
2023/09/12 11:02:40;;;;;;;1.00;1.00;;;;;;;31.27;23.29;100223.00;4989315;28;20050;-69
2023/09/12 11:05:27;;;;;;;1.00;1.00;;;;;;;31.32;23.62;100212.50;4984760;28;20061;-69
2023/09/12 11:07:57;;;;;;;1.10;1.10;;;;;;;32.22;22.37;100216.94;4984407;28;20138;-69
2023/09/12 11:10:26;;;;;;;1.10;1.10;;;;;;;32.90;21.56;100218.44;4970341;28;20051;-70
2023/09/12 11:12:54;;;;;;;1.10;1.10;;;;;;;33.69;20.76;100212.34;4987043;28;20474;-69
2023/09/12 11:15:21;;;;;;;1.00;1.00;;;;;;;33.39;21.03;100214.69;4989063;28;20054;-71
2023/09/12 11:17:49;;;;;;;0.95;0.95;;;;;;;32.72;21.36;100210.13;4983819;28;20042;-70
2023/09/12 11:20:16;;;;;;;1.10;1.10;;;;;;;32.98;21.32;100212.72;4951676;28;20081;-71
2023/09/12 11:22:44;;;;;;;1.10;1.10;;;;;;;32.88;21.73;100214.41;4988704;28;20115;-70
2023/09/12 11:25:22;;;;;;;1.17;1.17;;;;;;;33.16;21.33;100204.03;4989153;28;20077;-68
2023/09/12 11:28:09;;;;;;;1.20;1.20;;;;;;;34.05;20.28;100204.19;4988850;28;20516;-69
2023/09/12 11:30:36;;;;;;;1.10;1.10;;;;;;;34.29;20.12;100201.38;4987757;28;20048;-70
2023/09/12 11:33:05;;;;;;;0.90;0.90;;;;;;;33.97;20.46;100207.53;4987555;28;20745;-69
2023/09/12 11:35:37;;;;;;;1.10;1.10;;;;;;;33.63;20.25;100206.34;4985819;28;20536;-71